sensor_id;sensor_type;location;lat;lon;timestamp;pressure;altitude;pressure_sealevel;temperature;humidity
60974;BME280;46846;51.528;5.076;2023-02-07T00:02:05;103435.50;;;2.72;79.02
60974;BME280;46846;51.528;5.076;2023-02-07T00:04:31;103439.84;;;2.71;78.92
60974;BME280;46846;51.528;5.076;2023-02-07T00:06:56;103439.81;;;2.70;79.24
60974;BME280;46846;51.528;5.076;2023-02-07T00:09:21;103430.06;;;2.67;78.95
60974;BME280;46846;51.528;5.076;2023-02-07T00:11:47;103439.66;;;2.67;79.12
60974;BME280;46846;51.528;5.076;2023-02-07T00:14:12;103436.19;;;2.68;79.16
60974;BME280;46846;51.528;5.076;2023-02-07T00:16:39;103432.53;;;2.64;79.02
60974;BME280;46846;51.528;5.076;2023-02-07T00:19:04;103436.00;;;2.63;78.67
60974;BME280;46846;51.528;5.076;2023-02-07T00:21:30;103435.13;;;2.63;79.06
60974;BME280;46846;51.528;5.076;2023-02-07T00:23:55;103429.03;;;2.64;78.81
60974;BME280;46846;51.528;5.076;2023-02-07T00:26:23;103427.25;;;2.63;78.67
60974;BME280;46846;51.528;5.076;2023-02-07T00:28:50;103424.53;;;2.61;78.91
60974;BME280;46846;51.528;5.076;2023-02-07T00:31:19;103422.78;;;2.62;78.93
60974;BME280;46846;51.528;5.076;2023-02-07T00:33:46;103422.63;;;2.57;78.98
60974;BME280;46846;51.528;5.076;2023-02-07T00:36:14;103417.31;;;2.55;79.02
60974;BME280;46846;51.528;5.076;2023-02-07T00:38:40;103412.88;;;2.54;79.04
60974;BME280;46846;51.528;5.076;2023-02-07T00:41:06;103419.03;;;2.55;78.50
60974;BME280;46846;51.528;5.076;2023-02-07T00:43:31;103419.94;;;2.55;78.61
60974;BME280;46846;51.528;5.076;2023-02-07T00:45:58;103420.72;;;2.53;78.86
60974;BME280;46846;51.528;5.076;2023-02-07T00:48:25;103414.53;;;2.52;78.69
60974;BME280;46846;51.528;5.076;2023-02-07T00:50:53;103412.88;;;2.54;78.57
60974;BME280;46846;51.528;5.076;2023-02-07T00:53:19;103420.56;;;2.50;78.77
60974;BME280;46846;51.528;5.076;2023-02-07T00:55:44;103426.47;;;2.44;78.85
60974;BME280;46846;51.528;5.076;2023-02-07T00:58:10;103429.88;;;2.41;79.07
60974;BME280;46846;51.528;5.076;2023-02-07T01:00:35;103424.69;;;2.43;78.70
60974;BME280;46846;51.528;5.076;2023-02-07T01:03:01;103417.50;;;2.39;79.18
60974;BME280;46846;51.528;5.076;2023-02-07T01:05:26;103415.72;;;2.38;78.64
60974;BME280;46846;51.528;5.076;2023-02-07T01:07:52;103415.72;;;2.38;78.85
60974;BME280;46846;51.528;5.076;2023-02-07T01:10:17;103412.13;;;2.36;78.65
60974;BME280;46846;51.528;5.076;2023-02-07T01:12:43;103413.81;;;2.34;78.84
60974;BME280;46846;51.528;5.076;2023-02-07T01:15:08;103407.63;;;2.33;78.74
60974;BME280;46846;51.528;5.076;2023-02-07T01:17:34;103405.00;;;2.33;78.85
60974;BME280;46846;51.528;5.076;2023-02-07T01:19:59;103407.63;;;2.33;78.61
60974;BME280;46846;51.528;5.076;2023-02-07T01:22:26;103410.19;;;2.31;78.82
60974;BME280;46846;51.528;5.076;2023-02-07T01:24:52;103406.69;;;2.31;78.72
60974;BME280;46846;51.528;5.076;2023-02-07T01:27:19;103410.16;;;2.30;78.47
60974;BME280;46846;51.528;5.076;2023-02-07T01:29:45;103415.34;;;2.28;78.29
60974;BME280;46846;51.528;5.076;2023-02-07T01:32:10;103415.22;;;2.25;78.90
60974;BME280;46846;51.528;5.076;2023-02-07T01:34:35;103422.25;;;2.26;78.96
60974;BME280;46846;51.528;5.076;2023-02-07T01:37:01;103410.75;;;2.24;78.64
60974;BME280;46846;51.528;5.076;2023-02-07T01:39:26;103420.31;;;2.22;79.08
60974;BME280;46846;51.528;5.076;2023-02-07T01:41:51;103417.78;;;2.24;78.58
60974;BME280;46846;51.528;5.076;2023-02-07T01:46:45;103420.22;;;2.19;78.48
60974;BME280;46846;51.528;5.076;2023-02-07T01:49:11;103420.13;;;2.17;78.62
60974;BME280;46846;51.528;5.076;2023-02-07T01:51:42;103426.34;;;2.19;78.64
60974;BME280;46846;51.528;5.076;2023-02-07T01:54:10;103418.34;;;2.16;79.06
60974;BME280;46846;51.528;5.076;2023-02-07T01:56:40;103425.31;;;2.16;78.49
60974;BME280;46846;51.528;5.076;2023-02-07T01:59:07;103425.31;;;2.16;78.42
60974;BME280;46846;51.528;5.076;2023-02-07T02:01:32;103421.66;;;2.12;78.80
60974;BME280;46846;51.528;5.076;2023-02-07T02:03:58;103421.72;;;2.14;78.59
60974;BME280;46846;51.528;5.076;2023-02-07T02:06:27;103429.53;;;2.12;78.57
60974;BME280;46846;51.528;5.076;2023-02-07T02:08:55;103426.91;;;2.12;78.72
60974;BME280;46846;51.528;5.076;2023-02-07T02:11:36;103423.41;;;2.12;78.55
60974;BME280;46846;51.528;5.076;2023-02-07T02:14:39;103417.25;;;2.11;78.06
60974;BME280;46846;51.528;5.076;2023-02-07T02:17:28;103421.53;;;2.09;78.46
60974;BME280;46846;51.528;5.076;2023-02-07T02:25:52;103421.41;;;2.06;78.35
60974;BME280;46846;51.528;5.076;2023-02-07T02:34:03;103435.16;;;2.00;78.68
60974;BME280;46846;51.528;5.076;2023-02-07T02:39:12;103420.16;;;1.98;78.51
60974;BME280;46846;51.528;5.076;2023-02-07T02:44:29;103421.84;;;1.96;78.49
60974;BME280;46846;51.528;5.076;2023-02-07T02:46:56;103418.19;;;1.92;78.49
60974;BME280;46846;51.528;5.076;2023-02-07T02:49:23;103416.31;;;1.89;78.60
60974;BME280;46846;51.528;5.076;2023-02-07T02:51:52;103420.81;;;1.92;78.41
60974;BME280;46846;51.528;5.076;2023-02-07T02:54:32;103423.44;;;1.92;78.25
60974;BME280;46846;51.528;5.076;2023-02-07T03:00:36;103416.38;;;1.91;78.12
60974;BME280;46846;51.528;5.076;2023-02-07T03:16:27;103402.31;;;1.89;78.23
60974;BME280;46846;51.528;5.076;2023-02-07T03:21:48;103410.66;;;1.80;78.42
60974;BME280;46846;51.528;5.076;2023-02-07T03:24:34;103403.50;;;1.76;78.69
60974;BME280;46846;51.528;5.076;2023-02-07T03:27:03;103408.94;;;1.81;78.57
60974;BME280;46846;51.528;5.076;2023-02-07T03:29:31;103412.47;;;1.81;78.32
60974;BME280;46846;51.528;5.076;2023-02-07T03:32:01;103408.94;;;1.81;78.22
60974;BME280;46846;51.528;5.076;2023-02-07T03:34:40;103408.88;;;1.79;78.24
60974;BME280;46846;51.528;5.076;2023-02-07T03:40:03;103400.09;;;1.78;78.24
60974;BME280;46846;51.528;5.076;2023-02-07T03:42:30;103400.91;;;1.77;78.51
60974;BME280;46846;51.528;5.076;2023-02-07T03:44:57;103396.84;;;1.84;78.07
60974;BME280;46846;51.528;5.076;2023-02-07T03:47:25;103401.63;;;1.73;78.10
60974;BME280;46846;51.528;5.076;2023-02-07T03:49:51;103391.13;;;1.73;78.24
60974;BME280;46846;51.528;5.076;2023-02-07T03:52:17;103395.28;;;1.68;78.45
60974;BME280;46846;51.528;5.076;2023-02-07T03:54:42;103401.38;;;1.67;78.71
60974;BME280;46846;51.528;5.076;2023-02-07T03:57:08;103386.84;;;1.75;78.36
60974;BME280;46846;51.528;5.076;2023-02-07T03:59:34;103387.00;;;1.59;78.94
60974;BME280;46846;51.528;5.076;2023-02-07T04:02:00;103390.72;;;1.64;78.64
60974;BME280;46846;51.528;5.076;2023-02-07T04:04:27;103386.44;;;1.66;78.06
60974;BME280;46846;51.528;5.076;2023-02-07T04:06:52;103382.84;;;1.64;78.51
60974;BME280;46846;51.528;5.076;2023-02-07T04:09:18;103384.50;;;1.62;78.84
60974;BME280;46846;51.528;5.076;2023-02-07T04:11:43;103380.47;;;1.70;78.41
60974;BME280;46846;51.528;5.076;2023-02-07T04:14:09;103375.69;;;1.60;78.40
60974;BME280;46846;51.528;5.076;2023-02-07T04:16:34;103378.50;;;1.64;78.71
60974;BME280;46846;51.528;5.076;2023-02-07T04:18:59;103383.75;;;1.64;78.31
60974;BME280;46846;51.528;5.076;2023-02-07T04:21:25;103378.31;;;1.60;78.61
60974;BME280;46846;51.528;5.076;2023-02-07T04:23:50;103373.06;;;1.60;78.61
60974;BME280;46846;51.528;5.076;2023-02-07T04:26:15;103381.28;;;1.48;78.91
60974;BME280;46846;51.528;5.076;2023-02-07T04:28:41;103381.59;;;1.56;79.01
60974;BME280;46846;51.528;5.076;2023-02-07T04:31:06;103381.41;;;1.51;78.86
60974;BME280;46846;51.528;5.076;2023-02-07T04:33:32;103381.81;;;1.60;78.39
60974;BME280;46846;51.528;5.076;2023-02-07T04:35:59;103387.56;;;1.52;78.68
60974;BME280;46846;51.528;5.076;2023-02-07T04:38:26;103386.56;;;1.49;78.76
60974;BME280;46846;51.528;5.076;2023-02-07T04:40:57;103388.59;;;1.55;78.70
60974;BME280;46846;51.528;5.076;2023-02-07T04:43:22;103387.38;;;1.47;78.81
60974;BME280;46846;51.528;5.076;2023-02-07T04:45:48;103389.97;;;1.47;78.92
60974;BME280;46846;51.528;5.076;2023-02-07T04:48:13;103386.53;;;1.48;78.96
60974;BME280;46846;51.528;5.076;2023-02-07T04:50:40;103390.75;;;1.44;79.06
60974;BME280;46846;51.528;5.076;2023-02-07T04:53:05;103386.38;;;1.45;78.68
60974;BME280;46846;51.528;5.076;2023-02-07T04:55:31;103395.22;;;1.47;78.93
60974;BME280;46846;51.528;5.076;2023-02-07T04:57:58;103396.25;;;1.50;78.31
60974;BME280;46846;51.528;5.076;2023-02-07T05:00:23;103390.88;;;1.47;78.72
60974;BME280;46846;51.528;5.076;2023-02-07T05:02:49;103399.44;;;1.43;78.87
60974;BME280;46846;51.528;5.076;2023-02-07T05:05:14;103405.56;;;1.44;78.83
60974;BME280;46846;51.528;5.076;2023-02-07T05:07:39;103397.50;;;1.39;78.84
60974;BME280;46846;51.528;5.076;2023-02-07T05:10:05;103391.56;;;1.43;78.66
60974;BME280;46846;51.528;5.076;2023-02-07T05:12:30;103386.44;;;1.46;78.62
60974;BME280;46846;51.528;5.076;2023-02-07T05:14:56;103397.56;;;1.41;78.67
60974;BME280;46846;51.528;5.076;2023-02-07T05:17:21;103394.88;;;1.39;78.62
60974;BME280;46846;51.528;5.076;2023-02-07T05:19:46;103397.50;;;1.39;78.39
60974;BME280;46846;51.528;5.076;2023-02-07T05:22:12;103409.50;;;1.34;79.04
60974;BME280;46846;51.528;5.076;2023-02-07T05:24:37;103406.94;;;1.35;78.82
60974;BME280;46846;51.528;5.076;2023-02-07T05:27:03;103406.31;;;1.41;78.71
60974;BME280;46846;51.528;5.076;2023-02-07T05:29:28;103407.88;;;1.36;78.56
60974;BME280;46846;51.528;5.076;2023-02-07T05:31:54;103408.81;;;1.38;78.38
60974;BME280;46846;51.528;5.076;2023-02-07T05:34:38;103415.78;;;1.38;78.42
60974;BME280;46846;51.528;5.076;2023-02-07T05:37:03;103416.31;;;1.30;79.04
60974;BME280;46846;51.528;5.076;2023-02-07T05:39:28;103418.06;;;1.30;78.66
60974;BME280;46846;51.528;5.076;2023-02-07T05:41:54;103419.94;;;1.32;78.96
60974;BME280;46846;51.528;5.076;2023-02-07T05:44:19;103418.28;;;1.34;78.67
60974;BME280;46846;51.528;5.076;2023-02-07T05:46:44;103421.81;;;1.35;78.73
60974;BME280;46846;51.528;5.076;2023-02-07T05:49:10;103417.31;;;1.32;78.64
60974;BME280;46846;51.528;5.076;2023-02-07T05:51:35;103416.56;;;1.35;78.31
60974;BME280;46846;51.528;5.076;2023-02-07T05:54:00;103424.19;;;1.30;78.67
60974;BME280;46846;51.528;5.076;2023-02-07T05:56:26;103424.16;;;1.29;78.50
60974;BME280;46846;51.528;5.076;2023-02-07T05:58:51;103430.28;;;1.29;78.19
60974;BME280;46846;51.528;5.076;2023-02-07T06:01:17;103425.72;;;1.25;78.53
60974;BME280;46846;51.528;5.076;2023-02-07T06:03:43;103431.56;;;1.19;79.06
60974;BME280;46846;51.528;5.076;2023-02-07T06:06:08;103434.44;;;1.24;78.70
60974;BME280;46846;51.528;5.076;2023-02-07T06:08:36;103427.53;;;1.26;78.42
60974;BME280;46846;51.528;5.076;2023-02-07T06:11:02;103426.47;;;1.22;78.80
60974;BME280;46846;51.528;5.076;2023-02-07T06:13:27;103435.19;;;1.21;78.90
60974;BME280;46846;51.528;5.076;2023-02-07T06:15:52;103446.44;;;1.19;78.66
60974;BME280;46846;51.528;5.076;2023-02-07T06:18:18;103441.94;;;1.16;78.68
60974;BME280;46846;51.528;5.076;2023-02-07T06:20:43;103450.75;;;1.18;78.64
60974;BME280;46846;51.528;5.076;2023-02-07T06:23:08;103452.72;;;1.22;78.61
60974;BME280;46846;51.528;5.076;2023-02-07T06:25:34;103455.88;;;1.15;78.38
60974;BME280;46846;51.528;5.076;2023-02-07T06:27:59;103450.91;;;1.21;78.28
60974;BME280;46846;51.528;5.076;2023-02-07T06:30:25;103448.22;;;1.20;78.65
60974;BME280;46846;51.528;5.076;2023-02-07T06:32:50;103446.44;;;1.19;78.06
60974;BME280;46846;51.528;5.076;2023-02-07T06:35:16;103463.03;;;1.19;78.32
60974;BME280;46846;51.528;5.076;2023-02-07T06:37:41;103464.03;;;1.21;78.62
60974;BME280;46846;51.528;5.076;2023-02-07T06:40:07;103472.66;;;1.19;77.89
60974;BME280;46846;51.528;5.076;2023-02-07T06:42:32;103469.19;;;1.20;78.19
60974;BME280;46846;51.528;5.076;2023-02-07T06:44:57;103457.59;;;1.15;78.30
60974;BME280;46846;51.528;5.076;2023-02-07T06:47:23;103464.41;;;1.11;78.57
60974;BME280;46846;51.528;5.076;2023-02-07T06:49:48;103460.69;;;1.06;78.62
60974;BME280;46846;51.528;5.076;2023-02-07T06:52:14;103461.53;;;1.05;78.24
60974;BME280;46846;51.528;5.076;2023-02-07T06:54:39;103466.97;;;1.09;78.46
60974;BME280;46846;51.528;5.076;2023-02-07T06:57:05;103473.28;;;1.13;78.04
60974;BME280;46846;51.528;5.076;2023-02-07T06:59:30;103469.13;;;1.18;77.77
60974;BME280;46846;51.528;5.076;2023-02-07T07:01:56;103468.91;;;0.95;77.95
60974;BME280;46846;51.528;5.076;2023-02-07T07:04:21;103468.78;;;0.92;78.74
60974;BME280;46846;51.528;5.076;2023-02-07T07:06:47;103476.72;;;0.94;78.68
60974;BME280;46846;51.528;5.076;2023-02-07T07:09:12;103480.41;;;0.98;78.86
60974;BME280;46846;51.528;5.076;2023-02-07T07:11:38;103476.78;;;0.95;78.54
60974;BME280;46846;51.528;5.076;2023-02-07T07:14:08;103478.34;;;0.92;78.48
60974;BME280;46846;51.528;5.076;2023-02-07T07:16:33;103475.69;;;0.90;78.71
60974;BME280;46846;51.528;5.076;2023-02-07T07:18:59;103476.66;;;0.92;78.39
60974;BME280;46846;51.528;5.076;2023-02-07T07:21:24;103478.44;;;0.93;78.54
60974;BME280;46846;51.528;5.076;2023-02-07T07:23:51;103483.78;;;0.95;78.56
60974;BME280;46846;51.528;5.076;2023-02-07T07:26:17;103495.75;;;0.90;78.70
60974;BME280;46846;51.528;5.076;2023-02-07T07:28:42;103494.84;;;0.89;79.00
60974;BME280;46846;51.528;5.076;2023-02-07T07:31:08;103497.22;;;0.85;78.83
60974;BME280;46846;51.528;5.076;2023-02-07T07:33:33;103497.19;;;0.83;78.55
60974;BME280;46846;51.528;5.076;2023-02-07T07:36:00;103496.19;;;0.81;78.80
60974;BME280;46846;51.528;5.076;2023-02-07T07:38:26;103503.38;;;0.85;78.91
60974;BME280;46846;51.528;5.076;2023-02-07T07:40:52;103512.81;;;0.81;78.70
60974;BME280;46846;51.528;5.076;2023-02-07T07:43:17;103505.94;;;0.84;78.69
60974;BME280;46846;51.528;5.076;2023-02-07T07:45:43;103503.09;;;0.79;78.68
60974;BME280;46846;51.528;5.076;2023-02-07T07:48:08;103509.97;;;0.77;78.94
60974;BME280;46846;51.528;5.076;2023-02-07T07:50:33;103513.16;;;0.71;79.24
60974;BME280;46846;51.528;5.076;2023-02-07T07:52:59;103502.63;;;0.70;79.04
60974;BME280;46846;51.528;5.076;2023-02-07T07:55:24;103504.28;;;0.67;78.60
60974;BME280;46846;51.528;5.076;2023-02-07T07:57:49;103507.19;;;0.74;78.38
60974;BME280;46846;51.528;5.076;2023-02-07T08:00:16;103510.28;;;0.65;79.34
60974;BME280;46846;51.528;5.076;2023-02-07T08:02:41;103504.50;;;0.72;78.91
60974;BME280;46846;51.528;5.076;2023-02-07T08:05:08;103517.84;;;0.77;78.45
60974;BME280;46846;51.528;5.076;2023-02-07T08:07:33;103513.72;;;0.64;78.63
60974;BME280;46846;51.528;5.076;2023-02-07T08:09:59;103512.66;;;0.60;79.22
60974;BME280;46846;51.528;5.076;2023-02-07T08:12:24;103508.00;;;0.54;79.00
60974;BME280;46846;51.528;5.076;2023-02-07T08:14:50;103506.81;;;0.66;79.00
60974;BME280;46846;51.528;5.076;2023-02-07T08:17:15;103516.06;;;0.59;79.02
60974;BME280;46846;51.528;5.076;2023-02-07T08:19:40;103502.97;;;0.59;78.93
60974;BME280;46846;51.528;5.076;2023-02-07T08:22:06;103505.44;;;0.56;79.13
60974;BME280;46846;51.528;5.076;2023-02-07T08:24:31;103506.50;;;0.60;78.95
60974;BME280;46846;51.528;5.076;2023-02-07T08:26:58;103511.88;;;0.63;78.85
60974;BME280;46846;51.528;5.076;2023-02-07T08:29:24;103516.25;;;0.62;78.21
60974;BME280;46846;51.528;5.076;2023-02-07T08:31:49;103515.94;;;0.56;78.46
60974;BME280;46846;51.528;5.076;2023-02-07T08:34:15;103514.88;;;0.52;78.67
60974;BME280;46846;51.528;5.076;2023-02-07T08:36:42;103510.69;;;0.56;79.13
60974;BME280;46846;51.528;5.076;2023-02-07T08:39:07;103515.94;;;0.56;78.83
60974;BME280;46846;51.528;5.076;2023-02-07T08:41:33;103514.22;;;0.57;78.82
60974;BME280;46846;51.528;5.076;2023-02-07T08:43:58;103510.56;;;0.53;78.51
60974;BME280;46846;51.528;5.076;2023-02-07T08:46:23;103506.47;;;0.42;79.27
60974;BME280;46846;51.528;5.076;2023-02-07T08:48:49;103510.38;;;0.50;78.88
60974;BME280;46846;51.528;5.076;2023-02-07T08:51:14;103497.22;;;0.66;78.70
60974;BME280;46846;51.528;5.076;2023-02-07T08:53:39;103503.44;;;0.50;78.81
60974;BME280;46846;51.528;5.076;2023-02-07T08:56:05;103507.94;;;0.53;78.66
60974;BME280;46846;51.528;5.076;2023-02-07T08:58:32;103501.78;;;0.52;78.95
60974;BME280;46846;51.528;5.076;2023-02-07T09:00:57;103501.13;;;0.57;78.55
60974;BME280;46846;51.528;5.076;2023-02-07T09:03:22;103504.31;;;0.51;78.63
60974;BME280;46846;51.528;5.076;2023-02-07T09:05:48;103501.78;;;0.52;79.03
60974;BME280;46846;51.528;5.076;2023-02-07T09:08:13;103505.00;;;0.47;79.18
60974;BME280;46846;51.528;5.076;2023-02-07T09:10:38;103506.78;;;0.48;79.04
60974;BME280;46846;51.528;5.076;2023-02-07T09:13:04;103505.13;;;0.50;78.48
60974;BME280;46846;51.528;5.076;2023-02-07T09:15:29;103505.59;;;0.59;78.27
60974;BME280;46846;51.528;5.076;2023-02-07T09:17:55;103496.75;;;0.57;78.17
60974;BME280;46846;51.528;5.076;2023-02-07T09:20:20;103494.50;;;0.47;79.09
60974;BME280;46846;51.528;5.076;2023-02-07T09:22:46;103503.19;;;0.46;78.57
60974;BME280;46846;51.528;5.076;2023-02-07T09:25:30;103499.91;;;0.50;78.66
60974;BME280;46846;51.528;5.076;2023-02-07T09:27:55;103500.63;;;0.47;78.75
60974;BME280;46846;51.528;5.076;2023-02-07T09:30:21;103499.75;;;0.47;78.95
60974;BME280;46846;51.528;5.076;2023-02-07T09:32:46;103496.00;;;0.42;79.29
60974;BME280;46846;51.528;5.076;2023-02-07T09:35:12;103495.47;;;0.49;78.96
60974;BME280;46846;51.528;5.076;2023-02-07T09:37:37;103494.19;;;0.40;78.77
60974;BME280;46846;51.528;5.076;2023-02-07T09:40:03;103494.66;;;0.50;79.08
60974;BME280;46846;51.528;5.076;2023-02-07T09:42:47;103488.13;;;0.42;79.30
60974;BME280;46846;51.528;5.076;2023-02-07T09:45:17;103494.88;;;0.54;78.45
60974;BME280;46846;51.528;5.076;2023-02-07T09:47:48;103493.19;;;0.55;78.51
60974;BME280;46846;51.528;5.076;2023-02-07T09:50:19;103495.47;;;0.49;78.50
60974;BME280;46846;51.528;5.076;2023-02-07T09:52:53;103490.91;;;0.45;78.82
60974;BME280;46846;51.528;5.076;2023-02-07T09:55:23;103490.38;;;0.52;78.89
60974;BME280;46846;51.528;5.076;2023-02-07T09:58:02;103482.69;;;0.55;78.64
60974;BME280;46846;51.528;5.076;2023-02-07T10:00:35;103481.78;;;0.54;78.93
60974;BME280;46846;51.528;5.076;2023-02-07T10:03:10;103482.53;;;0.52;78.55
60974;BME280;46846;51.528;5.076;2023-02-07T10:05:43;103489.72;;;0.56;78.48
60974;BME280;46846;51.528;5.076;2023-02-07T10:08:15;103486.69;;;0.65;78.42
60974;BME280;46846;51.528;5.076;2023-02-07T10:10:46;103480.44;;;0.63;77.74
60974;BME280;46846;51.528;5.076;2023-02-07T10:13:28;103488.38;;;0.64;77.92
60974;BME280;46846;51.528;5.076;2023-02-07T10:18:52;103481.59;;;0.68;78.16
60974;BME280;46846;51.528;5.076;2023-02-07T10:22:14;103485.13;;;0.68;77.95
60974;BME280;46846;51.528;5.076;2023-02-07T10:27:10;103479.91;;;0.70;77.97
60974;BME280;46846;51.528;5.076;2023-02-07T10:30:02;103483.22;;;0.66;78.12
60974;BME280;46846;51.528;5.076;2023-02-07T10:32:35;103475.88;;;0.59;78.56
60974;BME280;46846;51.528;5.076;2023-02-07T10:35:12;103468.47;;;0.68;78.25
60974;BME280;46846;51.528;5.076;2023-02-07T10:37:39;103479.56;;;0.62;78.15
60974;BME280;46846;51.528;5.076;2023-02-07T10:40:21;103477.38;;;0.72;78.03
60974;BME280;46846;51.528;5.076;2023-02-07T10:43:04;103475.44;;;0.86;77.80
60974;BME280;46846;51.528;5.076;2023-02-07T10:45:31;103476.94;;;0.80;77.93
60974;BME280;46846;51.528;5.076;2023-02-07T10:47:59;103476.88;;;0.79;77.57
60974;BME280;46846;51.528;5.076;2023-02-07T10:50:25;103470.66;;;0.77;77.68
60974;BME280;46846;51.528;5.076;2023-02-07T10:52:53;103470.28;;;0.87;77.14
60974;BME280;46846;51.528;5.076;2023-02-07T10:55:47;103464.28;;;0.72;77.43
60974;BME280;46846;51.528;5.076;2023-02-07T10:58:21;103474.47;;;0.65;77.71
60974;BME280;46846;51.528;5.076;2023-02-07T11:00:48;103478.44;;;0.57;78.28
60974;BME280;46846;51.528;5.076;2023-02-07T11:03:19;103470.88;;;0.63;78.04
60974;BME280;46846;51.528;5.076;2023-02-07T11:05:54;103472.84;;;0.67;78.02
60974;BME280;46846;51.528;5.076;2023-02-07T11:08:23;103474.09;;;0.76;77.87
60974;BME280;46846;51.528;5.076;2023-02-07T11:10:51;103466.78;;;0.87;77.66
60974;BME280;46846;51.528;5.076;2023-02-07T11:13:26;103464.72;;;0.81;77.23
60974;BME280;46846;51.528;5.076;2023-02-07T11:16:02;103466.53;;;0.82;77.18
60974;BME280;46846;51.528;5.076;2023-02-07T11:18:43;103463.09;;;0.83;77.97
60974;BME280;46846;51.528;5.076;2023-02-07T11:24:25;103446.84;;;0.90;77.51
60974;BME280;46846;51.528;5.076;2023-02-07T11:29:45;103449.47;;;0.90;76.69
60974;BME280;46846;51.528;5.076;2023-02-07T11:32:13;103445.72;;;0.85;77.15
60974;BME280;46846;51.528;5.076;2023-02-07T11:34:56;103451.41;;;0.94;77.55
60974;BME280;46846;51.528;5.076;2023-02-07T11:37:28;103436.19;;;1.05;75.92
60974;BME280;46846;51.528;5.076;2023-02-07T11:40:44;103433.34;;;1.01;76.44
60974;BME280;46846;51.528;5.076;2023-02-07T11:42:46;103434.31;;;1.03;76.08
60974;BME280;46846;51.528;5.076;2023-02-07T11:45:18;103435.88;;;0.99;76.46
60974;BME280;46846;51.528;5.076;2023-02-07T11:47:47;103442.25;;;1.04;75.92
60974;BME280;46846;51.528;5.076;2023-02-07T11:50:25;103436.19;;;1.05;74.87
60974;BME280;46846;51.528;5.076;2023-02-07T11:52:54;103440.38;;;1.02;75.98
60974;BME280;46846;51.528;5.076;2023-02-07T11:55:24;103436.09;;;1.04;75.99
60974;BME280;46846;51.528;5.076;2023-02-07T11:57:54;103433.63;;;1.07;75.67
60974;BME280;46846;51.528;5.076;2023-02-07T12:00:27;103432.72;;;1.06;75.43
60974;BME280;46846;51.528;5.076;2023-02-07T12:03:03;103425.91;;;1.10;74.91
60974;BME280;46846;51.528;5.076;2023-02-07T12:05:38;103433.47;;;1.04;75.39
60974;BME280;46846;51.528;5.076;2023-02-07T12:08:17;103427.25;;;1.02;75.73
60974;BME280;46846;51.528;5.076;2023-02-07T12:10:46;103423.97;;;1.06;74.38
60974;BME280;46846;51.528;5.076;2023-02-07T12:13:20;103428.41;;;1.07;72.55
60974;BME280;46846;51.528;5.076;2023-02-07T12:16:09;103417.16;;;1.09;72.71
60974;BME280;46846;51.528;5.076;2023-02-07T12:18:52;103421.56;;;1.11;72.62
60974;BME280;46846;51.528;5.076;2023-02-07T12:21:36;103436.09;;;1.04;75.50
60974;BME280;46846;51.528;5.076;2023-02-07T12:24:15;103433.88;;;0.93;75.61
60974;BME280;46846;51.528;5.076;2023-02-07T12:26:54;103424.81;;;1.05;74.83
60974;BME280;46846;51.528;5.076;2023-02-07T12:34:31;103420.00;;;1.14;74.15
60974;BME280;46846;51.528;5.076;2023-02-07T12:37:23;103417.16;;;1.09;74.20
60974;BME280;46846;51.528;5.076;2023-02-07T12:42:37;103417.16;;;1.09;73.27
60974;BME280;46846;51.528;5.076;2023-02-07T12:45:05;103422.22;;;1.06;75.62
60974;BME280;46846;51.528;5.076;2023-02-07T12:47:39;103425.59;;;1.04;75.12
60974;BME280;46846;51.528;5.076;2023-02-07T12:50:45;103418.56;;;1.03;74.83
60974;BME280;46846;51.528;5.076;2023-02-07T13:01:45;103415.84;;;1.19;73.70
60974;BME280;46846;51.528;5.076;2023-02-07T13:09:36;103412.41;;;1.20;74.12
60974;BME280;46846;51.528;5.076;2023-02-07T13:12:17;103407.00;;;1.17;74.68
60974;BME280;46846;51.528;5.076;2023-02-07T13:17:31;103411.50;;;1.20;74.18
60974;BME280;46846;51.528;5.076;2023-02-07T13:22:39;103404.25;;;1.14;71.64
60974;BME280;46846;51.528;5.076;2023-02-07T13:25:15;103402.59;;;1.16;73.83
60974;BME280;46846;51.528;5.076;2023-02-07T13:27:43;103404.28;;;1.16;72.65
60974;BME280;46846;51.528;5.076;2023-02-07T13:30:15;103405.28;;;1.18;73.31
60974;BME280;46846;51.528;5.076;2023-02-07T13:32:41;103402.78;;;1.21;71.11
60974;BME280;46846;51.528;5.076;2023-02-07T13:35:12;103400.16;;;1.21;72.25
60974;BME280;46846;51.528;5.076;2023-02-07T13:41:09;103397.44;;;1.18;73.08
60974;BME280;46846;51.528;5.076;2023-02-07T13:48:19;103395.09;;;1.24;71.56
60974;BME280;46846;51.528;5.076;2023-02-07T13:53:59;103391.69;;;1.27;70.28
60974;BME280;46846;51.528;5.076;2023-02-07T13:56:31;103386.59;;;1.30;70.73
60974;BME280;46846;51.528;5.076;2023-02-07T13:59:38;103382.22;;;1.30;69.23
60974;BME280;46846;51.528;5.076;2023-02-07T14:02:17;103379.47;;;1.27;69.98
60974;BME280;46846;51.528;5.076;2023-02-07T14:04:52;103372.66;;;1.31;71.76
60974;BME280;46846;51.528;5.076;2023-02-07T14:07:23;103380.22;;;1.25;72.96
60974;BME280;46846;51.528;5.076;2023-02-07T14:09:50;103379.56;;;1.29;72.32
60974;BME280;46846;51.528;5.076;2023-02-07T14:12:25;103376.22;;;1.33;69.76
60974;BME280;46846;51.528;5.076;2023-02-07T14:14:52;103379.00;;;1.36;70.29
60974;BME280;46846;51.528;5.076;2023-02-07T14:19:54;103374.63;;;1.36;68.22
60974;BME280;46846;51.528;5.076;2023-02-07T14:32:30;103369.47;;;1.38;70.30
60974;BME280;46846;51.528;5.076;2023-02-07T14:40:27;103361.59;;;1.38;68.54
60974;BME280;46846;51.528;5.076;2023-02-07T14:43:05;103366.91;;;1.40;68.24
60974;BME280;46846;51.528;5.076;2023-02-07T14:45:35;103360.00;;;1.42;68.20
60974;BME280;46846;51.528;5.076;2023-02-07T14:48:02;103368.75;;;1.42;68.39
60974;BME280;46846;51.528;5.076;2023-02-07T14:50:29;103364.50;;;1.44;67.50
60974;BME280;46846;51.528;5.076;2023-02-07T14:53:03;103368.09;;;1.46;68.17
60974;BME280;46846;51.528;5.076;2023-02-07T14:55:42;103363.66;;;1.45;67.71
60974;BME280;46846;51.528;5.076;2023-02-07T15:00:50;103371.19;;;1.38;70.65
60974;BME280;46846;51.528;5.076;2023-02-07T15:03:20;103364.34;;;1.41;67.48